createdAt,value
2019-01-25T00:00:52.015Z,101717.27
2019-01-25T00:03:17.942Z,101720.75
2019-01-25T00:05:43.942Z,101714.00
2019-01-25T00:08:10.468Z,101711.00
2019-01-25T00:10:36.398Z,101707.13
2019-01-25T00:13:02.827Z,101709.14
2019-01-25T00:15:28.788Z,101706.17
2019-01-25T00:17:54.819Z,101698.69
2019-01-25T00:20:20.740Z,101698.19
2019-01-25T00:22:46.702Z,101697.73
2019-01-25T00:25:13.642Z,101694.83
2019-01-25T00:27:40.079Z,101692.75
2019-01-25T00:30:12.135Z,101696.88
2019-01-25T00:32:38.140Z,101699.77
2019-01-25T00:35:06.657Z,101705.09
2019-01-25T00:37:32.719Z,101704.75
2019-01-25T00:40:05.977Z,101704.43
2019-01-25T00:42:27.201Z,101704.11
2019-01-25T00:44:53.168Z,101702.34
2019-01-25T00:47:19.102Z,101691.92
2019-01-25T00:49:45.223Z,101698.80
2019-01-25T00:52:11.371Z,101689.66
2019-01-25T00:54:37.708Z,101693.63
2019-01-25T00:57:03.640Z,101696.34
2019-01-25T00:59:29.602Z,101693.34
2019-01-25T01:01:55.526Z,101696.16
2019-01-25T01:04:21.452Z,101696.03
2019-01-25T01:06:47.399Z,101704.57
2019-01-25T01:09:13.364Z,101696.62
2019-01-25T01:11:39.251Z,101697.81
2019-01-25T01:14:05.451Z,101694.84
2019-01-25T01:16:31.882Z,101694.38
2019-01-25T01:18:59.720Z,101694.77
2019-01-25T01:21:25.682Z,101691.72
2019-01-25T01:23:51.606Z,101686.55
2019-01-25T01:26:18.638Z,101683.96
2019-01-25T01:28:44.605Z,101691.30
2019-01-25T01:31:10.526Z,101688.33
2019-01-25T01:33:36.512Z,101686.59
2019-01-25T01:36:03.584Z,101681.95
2019-01-25T01:38:29.518Z,101681.11
2019-01-25T01:40:55.443Z,101686.85
2019-01-25T01:43:21.503Z,101689.25
2019-01-25T01:45:47.511Z,101674.77
2019-01-25T01:48:13.666Z,101674.77
2019-01-25T01:50:40.619Z,101674.27
2019-01-25T01:53:06.551Z,101667.64
2019-01-25T01:55:32.472Z,101664.59
2019-01-25T01:57:58.479Z,101674.39
2019-01-25T02:00:25.121Z,101669.41
2019-01-25T02:02:51.647Z,101666.82
2019-01-25T02:05:17.907Z,101660.96
2019-01-25T02:07:44.137Z,101658.06
2019-01-25T02:10:13.671Z,101665.78
2019-01-25T02:12:39.638Z,101662.03
2019-01-25T02:15:08.174Z,101664.03
2019-01-25T02:17:34.097Z,101666.12
2019-01-25T02:20:00.117Z,101664.42
2019-01-25T02:22:26.105Z,101646.64
2019-01-25T02:24:52.227Z,101647.41
2019-01-25T02:27:18.216Z,101649.84
2019-01-25T02:29:44.135Z,101650.99
2019-01-25T02:32:10.065Z,101646.83
2019-01-25T02:34:36.094Z,101644.75
2019-01-25T02:37:02.319Z,101646.40
2019-01-25T02:39:28.240Z,101630.74
2019-01-25T02:41:55.007Z,101629.82
2019-01-25T02:44:20.943Z,101626.46
2019-01-25T02:46:46.863Z,101634.98
2019-01-25T02:49:12.824Z,101629.92
2019-01-25T02:51:38.753Z,101625.64
2019-01-25T02:54:05.588Z,101622.66
2019-01-25T02:56:31.541Z,101621.23
2019-01-25T02:58:57.472Z,101616.56
2019-01-25T03:01:23.392Z,101621.77
2019-01-25T03:03:49.380Z,101616.97
2019-01-25T03:06:15.312Z,101620.85
2019-01-25T03:08:41.227Z,101618.52
2019-01-25T03:11:08.686Z,101622.94
2019-01-25T03:13:34.615Z,101627.88
2019-01-25T03:16:00.539Z,101628.21
2019-01-25T03:18:26.502Z,101624.36
2019-01-25T03:20:52.726Z,101617.42
2019-01-25T03:23:19.585Z,101612.87
2019-01-25T03:25:46.072Z,101611.59
2019-01-25T03:28:11.993Z,101611.52
2019-01-25T03:30:37.921Z,101610.66
2019-01-25T03:33:04.231Z,101607.34
2019-01-25T03:35:30.409Z,101607.73
2019-01-25T03:37:56.833Z,101605.19
2019-01-25T03:40:24.801Z,101599.83
2019-01-25T03:42:50.722Z,101596.05
2019-01-25T03:45:17.242Z,101596.81
2019-01-25T03:47:43.235Z,101601.31
2019-01-25T03:50:21.248Z,101595.92
2019-01-25T03:52:47.410Z,101601.75
2019-01-25T03:55:14.339Z,101601.44
2019-01-25T03:57:40.287Z,101592.05
2019-01-25T04:00:15.632Z,101585.87
2019-01-25T04:02:41.997Z,101583.41
2019-01-25T04:05:10.717Z,101579.56
2019-01-25T04:07:37.307Z,101582.10
2019-01-25T04:10:07.045Z,101576.83
2019-01-25T04:12:33.674Z,101574.91
2019-01-25T04:14:59.636Z,101576.62
2019-01-25T04:17:25.862Z,101576.36
2019-01-25T04:19:51.788Z,101570.82
2019-01-25T04:22:18.758Z,101572.37
2019-01-25T04:24:44.678Z,101573.84
2019-01-25T04:27:10.605Z,101569.70
2019-01-25T04:29:36.594Z,101573.33
2019-01-25T04:32:04.856Z,101564.97
2019-01-25T04:34:30.787Z,101562.50
2019-01-25T04:36:57.675Z,101559.59
2019-01-25T04:39:23.600Z,101565.66
2019-01-25T04:41:51.031Z,101561.41
2019-01-25T04:44:17.014Z,101558.34
2019-01-25T04:46:42.944Z,101558.18
2019-01-25T04:49:08.930Z,101560.80
2019-01-25T04:51:34.957Z,101560.09
2019-01-25T04:54:00.880Z,101561.76
2019-01-25T04:56:28.712Z,101558.58
2019-01-25T04:58:55.002Z,101565.37
2019-01-25T05:01:20.936Z,101562.69
2019-01-25T05:03:46.871Z,101564.91
2019-01-25T05:06:15.140Z,101566.27
2019-01-25T05:08:41.094Z,101570.53
2019-01-25T05:11:19.912Z,101573.46
2019-01-25T05:13:43.507Z,101566.09
2019-01-25T05:16:12.248Z,101569.09
2019-01-25T05:18:38.247Z,101567.43
2019-01-25T05:21:05.861Z,101559.23
2019-01-25T05:23:31.783Z,101551.05
2019-01-25T05:25:57.710Z,101559.31
2019-01-25T05:28:23.670Z,101559.34
2019-01-25T05:30:55.143Z,101565.20
2019-01-25T05:33:21.078Z,101568.56
2019-01-25T05:35:47.261Z,101559.91
2019-01-25T05:38:13.368Z,101560.30
2019-01-25T05:40:39.304Z,101560.37
2019-01-25T05:43:05.265Z,101547.55
2019-01-25T05:45:31.201Z,101551.27
2019-01-25T05:47:57.126Z,101549.18
2019-01-25T05:50:23.071Z,101544.70
2019-01-25T05:52:49.217Z,101551.33
2019-01-25T05:55:17.565Z,101544.77
2019-01-25T05:57:44.262Z,101538.23
2019-01-25T06:00:11.191Z,101541.66
2019-01-25T06:02:37.336Z,101528.55
2019-01-25T06:05:05.159Z,101532.75
2019-01-25T06:07:31.089Z,101528.76
2019-01-25T06:09:57.011Z,101523.95
2019-01-25T06:12:22.973Z,101520.73
2019-01-25T06:14:49.121Z,101521.68
2019-01-25T06:17:15.044Z,101518.46
2019-01-25T06:19:41.059Z,101510.75
2019-01-25T06:22:07.102Z,101512.09
2019-01-25T06:24:33.046Z,101514.27
2019-01-25T06:27:00.036Z,101513.10
2019-01-25T06:29:29.375Z,101512.81
2019-01-25T06:31:55.330Z,101508.41
2019-01-25T06:34:21.694Z,101508.94
2019-01-25T06:36:47.618Z,101506.56
2019-01-25T06:39:13.623Z,101502.13
2019-01-25T06:41:44.045Z,101500.15
2019-01-25T06:44:07.470Z,101498.55
2019-01-25T06:46:35.016Z,101493.38
2019-01-25T06:49:00.987Z,101495.16
2019-01-25T06:51:27.152Z,101489.06
2019-01-25T06:53:53.395Z,101494.95
2019-01-25T06:56:20.123Z,101496.22
2019-01-25T06:58:48.035Z,101499.23
2019-01-25T07:01:15.963Z,101496.23
2019-01-25T07:03:42.140Z,101496.56
2019-01-25T07:06:08.375Z,101498.80
2019-01-25T07:08:35.208Z,101496.02
2019-01-25T07:11:01.235Z,101495.27
2019-01-25T07:13:27.308Z,101494.08
2019-01-25T07:15:53.188Z,101504.02
2019-01-25T07:18:19.147Z,101509.05
2019-01-25T07:20:45.178Z,101501.63
2019-01-25T07:23:11.408Z,101504.25
2019-01-25T07:25:37.489Z,101503.16
2019-01-25T07:28:03.552Z,101499.17
2019-01-25T07:30:32.212Z,101496.39
2019-01-25T07:32:58.488Z,101492.42
2019-01-25T07:35:24.396Z,101493.35
2019-01-25T07:37:50.324Z,101490.96
2019-01-25T07:40:17.317Z,101484.39
2019-01-25T07:42:43.309Z,101479.92
2019-01-25T07:45:11.013Z,101482.45
2019-01-25T07:47:37.730Z,101478.73
2019-01-25T07:50:09.875Z,101485.78
2019-01-25T07:52:35.942Z,101479.22
2019-01-25T07:55:02.928Z,101482.20
2019-01-25T07:57:28.889Z,101487.97
2019-01-25T07:59:54.904Z,101485.61
2019-01-25T08:02:20.903Z,101485.30
2019-01-25T08:04:48.005Z,101488.25
2019-01-25T08:07:14.193Z,101490.02
2019-01-25T08:09:40.146Z,101486.33
2019-01-25T08:12:07.504Z,101489.34
2019-01-25T08:14:34.096Z,101480.41
2019-01-25T08:17:00.053Z,101481.80
2019-01-25T08:19:26.459Z,101485.20
2019-01-25T08:21:52.410Z,101489.03
2019-01-25T08:24:18.426Z,101481.72
2019-01-25T08:26:44.417Z,101481.45
2019-01-25T08:29:10.540Z,101482.38
2019-01-25T08:31:36.754Z,101486.57
2019-01-25T08:34:03.171Z,101490.44
2019-01-25T08:36:29.383Z,101488.94
2019-01-25T08:38:55.993Z,101496.20
2019-01-25T08:41:22.842Z,101491.45
2019-01-25T08:43:48.842Z,101490.75
2019-01-25T08:46:14.821Z,101484.73
2019-01-25T08:48:40.730Z,101486.91
2019-01-25T08:51:06.649Z,101479.57
2019-01-25T08:53:32.711Z,101472.54
2019-01-25T08:55:58.685Z,101468.47
2019-01-25T08:58:24.644Z,101469.78
2019-01-25T09:00:51.846Z,101469.14
2019-01-25T09:03:18.004Z,101467.95
2019-01-25T09:05:44.227Z,101464.30
2019-01-25T09:08:10.305Z,101464.88
2019-01-25T09:10:36.234Z,101463.36
2019-01-25T09:13:02.159Z,101462.25
2019-01-25T09:15:30.650Z,101455.77
2019-01-25T09:17:56.588Z,101454.37
2019-01-25T09:20:22.711Z,101452.97
2019-01-25T09:22:48.669Z,101445.28
2019-01-25T09:25:15.595Z,101447.19
2019-01-25T09:27:41.541Z,101442.44
2019-01-25T09:30:11.009Z,101440.51
2019-01-25T09:32:37.242Z,101443.05
2019-01-25T09:35:04.075Z,101439.38
2019-01-25T09:37:30.152Z,101441.52
2019-01-25T09:39:56.119Z,101434.45
2019-01-25T09:42:22.111Z,101433.72
2019-01-25T09:44:48.282Z,101433.50
2019-01-25T09:47:14.212Z,101428.23
2019-01-25T09:49:42.062Z,101426.16
2019-01-25T09:52:08.228Z,101426.50
2019-01-25T09:54:34.177Z,101420.23
2019-01-25T09:57:01.317Z,101407.39
2019-01-25T09:59:27.316Z,101407.79
2019-01-25T10:01:53.244Z,101408.73
2019-01-25T10:04:19.268Z,101404.96
2019-01-25T10:06:46.429Z,101408.73
2019-01-25T10:09:12.431Z,101400.12
2019-01-25T10:11:38.408Z,101396.43
2019-01-25T10:14:04.679Z,101394.04
2019-01-25T10:16:31.419Z,101387.03
2019-01-25T10:18:59.285Z,101386.58
2019-01-25T10:21:25.272Z,101379.87
2019-01-25T10:23:51.212Z,101376.14
2019-01-25T10:26:17.139Z,101369.02
2019-01-25T10:28:43.093Z,101368.19
2019-01-25T10:31:09.431Z,101368.94
2019-01-25T10:33:35.616Z,101365.60
2019-01-25T10:36:02.693Z,101360.14
2019-01-25T10:38:28.637Z,101354.27
2019-01-25T10:40:54.562Z,101353.42
2019-01-25T10:43:20.861Z,101350.05
2019-01-25T10:45:47.278Z,101349.95
2019-01-25T10:48:13.321Z,101338.75
2019-01-25T10:50:40.163Z,101340.21
2019-01-25T10:53:09.832Z,101334.66
2019-01-25T10:55:35.902Z,101338.78
2019-01-25T10:58:03.195Z,101337.84
2019-01-25T11:00:29.405Z,101334.05
2019-01-25T11:02:58.413Z,101336.44
2019-01-25T11:05:27.245Z,101328.93
2019-01-25T11:07:53.198Z,101333.00
2019-01-25T11:10:19.120Z,101330.06
2019-01-25T11:12:45.590Z,101330.18
2019-01-25T11:15:14.843Z,101328.84
2019-01-25T11:17:41.743Z,101328.37
2019-01-25T11:20:11.062Z,101326.95
2019-01-25T11:22:36.986Z,101325.89
2019-01-25T11:25:06.712Z,101325.98
2019-01-25T11:27:32.917Z,101337.39
2019-01-25T11:30:11.767Z,101330.45
2019-01-25T11:32:37.723Z,101327.64
2019-01-25T11:35:04.768Z,101318.60
2019-01-25T11:37:31.209Z,101319.52
2019-01-25T11:39:57.184Z,101314.22
2019-01-25T11:42:24.008Z,101310.12
2019-01-25T11:44:50.196Z,101312.64
2019-01-25T11:47:19.242Z,101309.39
2019-01-25T11:49:45.473Z,101299.60
2019-01-25T11:52:11.461Z,101303.17
2019-01-25T11:54:37.445Z,101302.58
2019-01-25T11:57:03.399Z,101303.59
2019-01-25T11:59:30.324Z,101296.60
2019-01-25T12:01:56.593Z,101290.83
2019-01-25T12:04:22.533Z,101287.12
2019-01-25T12:06:48.467Z,101284.70
2019-01-25T12:09:14.460Z,101280.12
2019-01-25T12:11:40.595Z,101277.23
2019-01-25T12:14:06.524Z,101274.34
2019-01-25T12:16:32.712Z,101274.72
2019-01-25T12:18:59.060Z,101273.87
2019-01-25T12:21:25.003Z,101270.65
2019-01-25T12:23:51.071Z,101270.69
2019-01-25T12:26:17.010Z,101269.95
2019-01-25T12:28:44.630Z,101267.45
2019-01-25T12:31:10.618Z,101261.98
2019-01-25T12:33:36.549Z,101270.72
2019-01-25T12:36:02.702Z,101259.89
2019-01-25T12:38:28.651Z,101264.48
2019-01-25T12:40:55.007Z,101271.15
2019-01-25T12:43:24.198Z,101269.88
2019-01-25T12:45:52.828Z,101263.53
2019-01-25T12:48:18.755Z,101268.95
2019-01-25T12:50:49.170Z,101267.31
2019-01-25T12:53:15.502Z,101263.16
2019-01-25T12:55:41.520Z,101259.02
2019-01-25T12:58:07.885Z,101259.06
2019-01-25T13:00:34.401Z,101253.25
2019-01-25T13:03:00.333Z,101256.59
2019-01-25T13:05:26.587Z,101254.94
2019-01-25T13:07:52.549Z,101250.76
2019-01-25T13:10:21.318Z,101246.59
2019-01-25T13:12:47.452Z,101243.23
2019-01-25T13:15:13.642Z,101246.59
2019-01-25T13:17:39.693Z,101234.54
2019-01-25T13:20:09.427Z,101241.62
2019-01-25T13:22:35.776Z,101237.40
2019-01-25T13:25:01.705Z,101242.39
2019-01-25T13:27:27.643Z,101238.22
2019-01-25T13:29:53.604Z,101241.50
2019-01-25T13:32:19.532Z,101240.64
2019-01-25T13:34:45.671Z,101231.47
2019-01-25T13:37:11.675Z,101232.69
2019-01-25T13:39:37.921Z,101232.71
2019-01-25T13:42:03.865Z,101232.27
2019-01-25T13:44:30.394Z,101228.08
2019-01-25T13:46:56.513Z,101236.79
2019-01-25T13:49:22.487Z,101230.93
2019-01-25T13:51:48.472Z,101229.27
2019-01-25T13:54:14.393Z,101227.55
2019-01-25T13:56:40.736Z,101226.26
2019-01-25T13:59:07.848Z,101217.05
2019-01-25T14:01:34.676Z,101222.28
2019-01-25T14:04:00.925Z,101218.42
2019-01-25T14:06:26.888Z,101216.66
2019-01-25T14:08:52.832Z,101214.02
2019-01-25T14:11:18.768Z,101215.63
2019-01-25T14:13:46.911Z,101204.30
2019-01-25T14:16:12.591Z,101204.30
2019-01-25T14:18:38.521Z,101202.65
2019-01-25T14:21:04.523Z,101200.53
2019-01-25T14:23:30.458Z,101199.16
2019-01-25T14:25:56.442Z,101191.15
2019-01-25T14:28:22.412Z,101197.59
2019-01-25T14:30:49.060Z,101199.94
2019-01-25T14:33:15.098Z,101198.17
2019-01-25T14:35:41.900Z,101198.47
2019-01-25T14:38:08.032Z,101194.21
2019-01-25T14:40:34.363Z,101194.94
2019-01-25T14:43:00.376Z,101188.59
2019-01-25T14:45:26.607Z,101187.67
2019-01-25T14:47:53.511Z,101186.88
2019-01-25T14:50:28.782Z,101189.39
2019-01-25T14:52:54.717Z,101188.55
2019-01-25T14:55:20.644Z,101183.27
2019-01-25T14:57:46.608Z,101186.64
2019-01-25T15:00:14.349Z,101190.88
2019-01-25T15:02:40.295Z,101188.03
2019-01-25T15:05:12.530Z,101185.95
2019-01-25T15:07:38.477Z,101191.28
2019-01-25T15:10:08.210Z,101186.27
2019-01-25T15:12:34.363Z,101187.52
2019-01-25T15:15:00.603Z,101182.58
2019-01-25T15:17:26.523Z,101178.41
2019-01-25T15:19:52.504Z,101182.91
2019-01-25T15:22:18.635Z,101180.42
2019-01-25T15:24:44.878Z,101180.42
2019-01-25T15:27:11.768Z,101182.02
2019-01-25T15:29:37.688Z,101183.27
2019-01-25T15:32:03.814Z,101182.38
2019-01-25T15:34:29.903Z,101184.02
2019-01-25T15:36:55.840Z,101183.59
2019-01-25T15:39:21.770Z,101179.85
2019-01-25T15:41:48.211Z,101182.34
2019-01-25T15:44:14.482Z,101178.97
2019-01-25T15:46:40.434Z,101180.22
2019-01-25T15:49:07.167Z,101179.41
2019-01-25T15:51:33.521Z,101177.37
2019-01-25T15:53:59.424Z,101176.53
2019-01-25T15:56:25.379Z,101171.99
2019-01-25T15:58:51.307Z,101178.97
2019-01-25T16:01:17.743Z,101178.56
2019-01-25T16:03:44.027Z,101183.53
2019-01-25T16:06:10.377Z,101179.81
2019-01-25T16:08:36.309Z,101180.69
2019-01-25T16:11:03.341Z,101172.84
2019-01-25T16:13:29.598Z,101172.03
2019-01-25T16:15:55.598Z,101172.44
2019-01-25T16:18:21.691Z,101169.07
2019-01-25T16:20:48.256Z,101168.23
2019-01-25T16:23:14.189Z,101168.23
2019-01-25T16:25:40.152Z,101159.56
2019-01-25T16:28:06.126Z,101158.72
2019-01-25T16:30:33.956Z,101159.13
2019-01-25T16:33:00.299Z,101162.05
2019-01-25T16:35:29.342Z,101161.69
2019-01-25T16:37:55.827Z,101157.48
2019-01-25T16:40:25.224Z,101154.55
2019-01-25T16:42:51.165Z,101154.52
2019-01-25T16:45:22.849Z,101148.30
2019-01-25T16:47:53.645Z,101145.41
2019-01-25T16:50:23.794Z,101144.56
2019-01-25T16:52:54.816Z,101146.61
2019-01-25T16:55:23.314Z,101132.86
2019-01-25T16:57:49.550Z,101133.70
2019-01-25T17:00:21.476Z,101135.75
2019-01-25T17:02:47.659Z,101136.14
2019-01-25T17:05:14.019Z,101132.42
2019-01-25T17:07:39.947Z,101131.22
2019-01-25T17:10:13.720Z,101128.73
2019-01-25T17:12:44.238Z,101126.64
2019-01-25T17:15:13.923Z,101127.09
2019-01-25T17:17:39.942Z,101125.04
2019-01-25T17:20:08.989Z,101122.99
2019-01-25T17:22:34.917Z,101124.20
2019-01-25T17:25:00.889Z,101124.16
2019-01-25T17:27:26.827Z,101123.72
2019-01-25T17:29:52.763Z,101119.95
2019-01-25T17:32:19.039Z,101124.48
2019-01-25T17:34:44.992Z,101117.83
2019-01-25T17:37:11.131Z,101113.30
2019-01-25T17:39:37.276Z,101112.45
2019-01-25T17:42:03.723Z,101109.53
2019-01-25T17:44:29.671Z,101108.65
2019-01-25T17:46:55.674Z,101109.01
2019-01-25T17:49:21.964Z,101108.60
2019-01-25T17:51:47.961Z,101109.33
2019-01-25T17:54:13.917Z,101110.52
2019-01-25T17:56:44.660Z,101104.27
2019-01-25T17:59:10.610Z,101103.73
2019-01-25T18:01:36.597Z,101104.02
2019-01-25T18:04:04.273Z,101089.02
2019-01-25T18:06:30.440Z,101079.84
2019-01-25T18:08:56.741Z,101084.01
2019-01-25T18:11:23.784Z,101074.52
2019-01-25T18:13:51.031Z,101073.28
2019-01-25T18:16:17.236Z,101072.84
2019-01-25T18:18:43.194Z,101069.47
2019-01-25T18:21:10.010Z,101069.88
2019-01-25T18:23:36.025Z,101062.42
2019-01-25T18:26:02.056Z,101064.50
2019-01-25T18:28:31.809Z,101064.06
2019-01-25T18:31:04.647Z,101063.18
2019-01-25T18:33:30.592Z,101066.55
2019-01-25T18:35:56.534Z,101059.09
2019-01-25T18:38:22.621Z,101049.56
2019-01-25T18:40:48.581Z,101043.39
2019-01-25T18:43:15.216Z,101043.75
2019-01-25T18:45:42.435Z,101040.03
2019-01-25T18:48:08.373Z,101038.83
2019-01-25T18:50:34.433Z,101029.38
2019-01-25T18:53:00.746Z,101032.66
2019-01-25T18:55:26.724Z,101032.78
2019-01-25T18:57:52.671Z,101032.42
2019-01-25T19:00:21.324Z,101026.21
2019-01-25T19:02:47.285Z,101026.21
2019-01-25T19:05:15.424Z,101020.00
2019-01-25T19:07:42.469Z,101022.12
2019-01-25T19:10:26.287Z,101024.54
2019-01-25T19:12:52.261Z,101015.80
2019-01-25T19:15:22.208Z,101017.84
2019-01-25T19:17:48.258Z,101012.87
2019-01-25T19:20:15.194Z,101012.91
2019-01-25T19:22:41.130Z,101009.63
2019-01-25T19:25:09.593Z,101008.87
2019-01-25T19:27:35.600Z,101004.78
2019-01-25T19:30:04.754Z,101001.13
2019-01-25T19:32:30.711Z,101006.17
2019-01-25T19:34:56.754Z,101000.77
2019-01-25T19:37:24.495Z,100996.64
2019-01-25T19:39:50.759Z,100998.72
2019-01-25T19:42:16.780Z,100992.95
2019-01-25T19:44:42.714Z,100994.27
2019-01-25T19:47:08.646Z,100983.08
2019-01-25T19:49:39.620Z,100983.05
2019-01-25T19:52:05.793Z,100985.97
2019-01-25T19:54:32.029Z,100985.16
2019-01-25T19:56:58.602Z,100984.36
2019-01-25T19:59:26.788Z,100977.74
2019-01-25T20:01:52.934Z,100974.82
2019-01-25T20:04:18.990Z,100974.45
2019-01-25T20:06:45.042Z,100972.80
2019-01-25T20:09:11.059Z,100968.23
2019-01-25T20:11:37.808Z,100967.88
2019-01-25T20:14:06.626Z,100957.93
2019-01-25T20:16:37.290Z,100964.21
2019-01-25T20:19:03.640Z,100958.80
2019-01-25T20:21:29.982Z,100955.05
2019-01-25T20:23:57.058Z,100946.38
2019-01-25T20:26:23.420Z,100948.45
2019-01-25T20:28:49.463Z,100942.25
2019-01-25T20:31:15.499Z,100948.55
2019-01-25T20:33:41.658Z,100949.89
2019-01-25T20:36:08.681Z,100950.39
2019-01-25T20:38:45.265Z,100954.12
2019-01-25T20:41:11.290Z,100942.90
2019-01-25T20:43:37.228Z,100943.70
2019-01-25T20:46:06.284Z,100938.70
2019-01-25T20:48:32.384Z,100945.70
2019-01-25T20:50:58.308Z,100944.42
2019-01-25T20:53:24.669Z,100935.32
2019-01-25T20:55:54.433Z,100930.38
2019-01-25T20:58:20.378Z,100929.11
2019-01-25T21:00:46.425Z,100927.45
2019-01-25T21:03:14.004Z,100928.30
2019-01-25T21:05:40.273Z,100925.78
2019-01-25T21:08:06.217Z,100920.34
2019-01-25T21:10:32.205Z,100928.61
2019-01-25T21:12:58.276Z,100929.02
2019-01-25T21:15:26.120Z,100921.92
2019-01-25T21:17:52.649Z,100921.52
2019-01-25T21:20:27.392Z,100927.30
2019-01-25T21:22:53.333Z,100917.36
2019-01-25T21:25:19.427Z,100910.71
2019-01-25T21:27:45.397Z,100911.12
2019-01-25T21:30:17.566Z,100911.52
2019-01-25T21:32:43.732Z,100914.84
2019-01-25T21:35:09.968Z,100906.95
2019-01-25T21:37:36.214Z,100903.63
2019-01-25T21:40:08.556Z,100902.85
2019-01-25T21:42:33.846Z,100893.75
2019-01-25T21:44:59.847Z,100894.99
2019-01-25T21:47:25.824Z,100897.88
2019-01-25T21:49:54.798Z,100899.50
2019-01-25T21:52:22.640Z,100898.66
2019-01-25T21:54:50.045Z,100894.09
2019-01-25T21:57:16.050Z,100899.47
2019-01-25T21:59:41.998Z,100889.06
2019-01-25T22:02:08.269Z,100889.06
2019-01-25T22:04:34.405Z,100885.36
2019-01-25T22:07:02.394Z,100890.80
2019-01-25T22:09:28.405Z,100882.11
2019-01-25T22:11:54.389Z,100881.70
2019-01-25T22:14:20.413Z,100875.11
2019-01-25T22:16:46.516Z,100875.11
2019-01-25T22:19:12.459Z,100870.98
2019-01-25T22:21:38.525Z,100872.22
2019-01-25T22:24:04.660Z,100873.06
2019-01-25T22:26:32.130Z,100861.88
2019-01-25T22:28:58.125Z,100864.77
2019-01-25T22:31:24.086Z,100862.72
2019-01-25T22:33:50.089Z,100854.02
2019-01-25T22:36:16.204Z,100852.77
2019-01-25T22:38:42.517Z,100848.23
2019-01-25T22:41:08.456Z,100852.83
2019-01-25T22:43:34.499Z,100854.07
2019-01-25T22:46:13.100Z,100840.78
2019-01-25T22:48:39.042Z,100836.67
2019-01-25T22:51:05.206Z,100835.43
2019-01-25T22:53:31.204Z,100832.55
2019-01-25T22:55:57.131Z,100831.30
2019-01-25T22:58:26.919Z,100831.73
2019-01-25T23:01:06.413Z,100828.03
2019-01-25T23:03:40.043Z,100822.65
2019-01-25T23:06:33.625Z,100834.70
2019-01-25T23:09:05.176Z,100823.08
2019-01-25T23:11:35.797Z,100828.48
2019-01-25T23:14:16.306Z,100818.55
2019-01-25T23:16:47.299Z,100821.05
2019-01-25T23:19:14.982Z,100821.05
2019-01-25T23:21:41.312Z,100826.45
2019-01-25T23:24:10.263Z,100820.23
2019-01-25T23:26:42.560Z,100815.30
2019-01-25T23:29:08.617Z,100815.75
2019-01-25T23:31:38.693Z,100812.42
2019-01-25T23:34:08.030Z,100818.23
2019-01-25T23:36:35.420Z,100809.13
2019-01-25T23:39:06.043Z,100812.42
2019-01-25T23:41:33.672Z,100811.56
2019-01-25T23:43:59.616Z,100806.19
2019-01-25T23:46:30.803Z,100812.86
2019-01-25T23:48:56.766Z,100805.42
2019-01-25T23:51:27.664Z,100802.09
2019-01-25T23:53:57.509Z,100807.91
2019-01-25T23:56:28.038Z,100801.28
2019-01-25T23:58:55.549Z,100802.50
